Time;durP1;ratioP1;P1;durP2;ratioP2;P2;SDS_P1;SDS_P2;PMS_P1;PMS_P2;Temp;Humidity;BMP_temperature;BMP_pressure;BME280_temperature;BME280_humidity;BME280_pressure;Samples;Min_cycle;Max_cycle;Signal;HPM_P1;HPM_P2
2023/09/12 00:02:19;;;;;;;11.60;5.55;;;;;;;25.57;100.00;100910.13;4990541;28;20085;-45
2023/09/12 00:04:45;;;;;;;10.32;5.35;;;;;;;25.55;100.00;100909.88;4990257;28;20102;-47
2023/09/12 00:07:12;;;;;;;11.68;5.82;;;;;;;25.58;100.00;100914.53;4991170;28;20055;-44
2023/09/12 00:09:41;;;;;;;9.55;5.47;;;;;;;25.60;100.00;100914.00;4989721;28;20050;-45
2023/09/12 00:12:08;;;;;;;11.57;6.35;;;;;;;25.58;100.00;100905.97;4996669;28;20427;-46
2023/09/12 00:14:35;;;;;;;9.30;5.13;;;;;;;25.59;100.00;100896.16;4993423;28;20480;-45
2023/09/12 00:17:01;;;;;;;9.25;5.32;;;;;;;25.59;100.00;100893.31;4996135;28;20081;-44
2023/09/12 00:19:28;;;;;;;11.38;5.60;;;;;;;25.59;100.00;100890.47;4989668;28;20286;-46
2023/09/12 00:21:55;;;;;;;10.15;5.60;;;;;;;25.60;100.00;100897.72;4989782;28;20130;-45
2023/09/12 00:24:21;;;;;;;9.43;4.88;;;;;;;25.56;100.00;100891.50;4989155;28;20464;-47
2023/09/12 00:26:48;;;;;;;11.85;5.60;;;;;;;25.57;100.00;100895.91;4993181;28;20073;-46
2023/09/12 00:29:14;;;;;;;9.43;5.35;;;;;;;25.60;100.00;100897.72;4993899;28;20145;-48
2023/09/12 00:31:41;;;;;;;9.65;5.18;;;;;;;25.58;100.00;100883.22;4989642;28;20112;-49
2023/09/12 00:34:07;;;;;;;7.88;4.90;;;;;;;25.58;100.00;100883.22;4989653;28;20074;-45
2023/09/12 00:36:34;;;;;;;9.43;5.03;;;;;;;25.55;100.00;100895.63;4988483;28;20048;-47
2023/09/12 00:39:00;;;;;;;11.77;5.47;;;;;;;25.56;100.00;100905.75;4995214;28;20508;-44
2023/09/12 00:41:27;;;;;;;10.30;5.18;;;;;;;25.55;100.00;100917.66;4990610;28;20142;-45
2023/09/12 00:43:55;;;;;;;11.55;5.53;;;;;;;25.52;100.00;100927.97;4996257;28;20123;-46
2023/09/12 00:46:23;;;;;;;9.32;5.30;;;;;;;25.51;100.00;100934.97;4989571;28;20097;-45
2023/09/12 00:48:51;;;;;;;9.60;4.95;;;;;;;25.53;100.00;100952.31;4989206;28;20049;-46
2023/09/12 00:51:20;;;;;;;9.65;5.25;;;;;;;25.57;100.00;100989.84;4989269;28;20420;-46
2023/09/12 00:53:47;;;;;;;11.45;5.47;;;;;;;25.55;100.00;101003.03;4980580;28;20050;-44
2023/09/12 00:56:14;;;;;;;8.80;4.85;;;;;;;25.56;100.00;101033.84;4989431;28;20137;-47
2023/09/12 00:58:41;;;;;;;8.43;4.80;;;;;;;25.54;100.00;101027.09;4992640;28;20136;-48
2023/09/12 01:01:10;;;;;;;9.82;5.32;;;;;;;25.51;100.00;101014.66;4989319;28;20050;-46
2023/09/12 01:03:37;;;;;;;8.70;4.95;;;;;;;25.52;100.00;100967.81;4997186;28;20065;-45
2023/09/12 01:06:08;;;;;;;9.13;5.05;;;;;;;25.56;100.00;100865.09;4988867;28;20050;-46
2023/09/12 01:08:37;;;;;;;9.57;5.15;;;;;;;25.52;100.00;100774.25;4988667;28;20126;-46
2023/09/12 01:11:10;;;;;;;11.85;6.32;;;;;;;25.50;100.00;100768.34;4989256;28;20042;-45
2023/09/12 01:13:36;;;;;;;13.30;6.25;;;;;;;25.53;100.00;100795.75;4995837;28;20276;-46
2023/09/12 01:16:03;;;;;;;10.38;5.35;;;;;;;25.53;100.00;100792.91;4989505;28;20066;-47
2023/09/12 01:18:31;;;;;;;10.82;5.40;;;;;;;25.56;100.00;100777.66;4992884;28;20038;-45
2023/09/12 01:21:26;;;;;;;11.95;6.60;;;;;;;25.51;100.00;100792.66;4989393;28;20129;-46
2023/09/12 01:24:31;;;;;;;11.95;6.35;;;;;;;25.51;100.00;100832.50;4990391;28;20042;-46
2023/09/12 01:27:21;;;;;;;12.57;6.13;;;;;;;25.51;100.00;100849.56;4987316;28;20097;-45
2023/09/12 01:29:51;;;;;;;9.52;5.32;;;;;;;25.54;100.00;100851.38;4989301;28;20070;-46
2023/09/12 01:32:19;;;;;;;9.70;5.10;;;;;;;25.55;100.00;100843.63;4988951;28;20493;-45
2023/09/12 01:34:46;;;;;;;10.13;5.60;;;;;;;25.51;100.00;100852.41;4984456;28;20077;-45
2023/09/12 01:37:13;;;;;;;8.68;5.35;;;;;;;25.55;100.00;100857.88;4988705;28;20121;-45
2023/09/12 01:39:40;;;;;;;10.40;5.35;;;;;;;25.56;100.00;100845.19;4988658;28;20054;-46
2023/09/12 01:42:11;;;;;;;11.32;5.57;;;;;;;25.56;100.00;100848.81;5004444;28;20133;-46
2023/09/12 01:44:39;;;;;;;11.80;5.65;;;;;;;25.54;100.00;100859.13;4988427;28;20428;-46
2023/09/12 01:47:06;;;;;;;13.90;6.50;;;;;;;25.56;100.00;100865.91;4988032;28;20085;-46
2023/09/12 01:49:33;;;;;;;11.73;5.70;;;;;;;25.53;100.00;100858.38;4988426;28;20472;-46
2023/09/12 01:52:01;;;;;;;12.52;6.28;;;;;;;25.56;100.00;100848.03;4988271;28;20133;-46
2023/09/12 01:54:28;;;;;;;9.85;5.60;;;;;;;25.55;100.00;100844.41;4988527;28;20568;-45
2023/09/12 01:56:57;;;;;;;11.38;5.97;;;;;;;25.56;100.00;100850.88;4989127;28;20046;-47
2023/09/12 01:59:24;;;;;;;10.48;5.40;;;;;;;25.54;100.00;100851.38;4988470;28;20054;-46
2023/09/12 02:01:51;;;;;;;11.25;5.68;;;;;;;25.55;100.00;100863.56;4989083;28;20069;-44
2023/09/12 02:04:19;;;;;;;15.07;6.13;;;;;;;25.52;100.00;100882.44;4994746;28;20050;-45
2023/09/12 02:06:46;;;;;;;11.68;5.72;;;;;;;25.54;100.00;100885.53;4983008;28;20141;-44
2023/09/12 02:09:14;;;;;;;13.43;5.63;;;;;;;25.54;100.00;100888.41;4988481;28;20046;-45
2023/09/12 02:11:41;;;;;;;11.00;5.60;;;;;;;25.55;100.00;100898.47;4988730;28;20061;-46
2023/09/12 02:14:07;;;;;;;9.95;5.32;;;;;;;25.50;100.00;100902.13;4988748;28;20454;-45
2023/09/12 02:16:39;;;;;;;11.05;5.68;;;;;;;25.52;100.00;100896.66;4988497;28;20050;-46
2023/09/12 02:19:12;;;;;;;11.30;5.68;;;;;;;25.50;100.00;100873.66;4988672;28;20054;-43
2023/09/12 02:21:39;;;;;;;10.57;5.45;;;;;;;25.55;100.00;100860.72;4993774;28;20046;-45
2023/09/12 02:24:06;;;;;;;12.75;6.22;;;;;;;25.56;100.00;100848.03;4993498;28;20051;-45
2023/09/12 02:26:35;;;;;;;12.05;6.38;;;;;;;25.56;100.00;100842.34;4988074;28;20042;-46
2023/09/12 02:29:05;;;;;;;14.90;7.07;;;;;;;25.52;100.00;100839.72;4988181;28;20593;-47
2023/09/12 02:31:32;;;;;;;12.45;6.20;;;;;;;25.54;100.00;100830.69;4988366;28;20062;-44
2023/09/12 02:33:59;;;;;;;13.02;6.68;;;;;;;25.54;100.00;100827.81;4988797;28;20133;-45
2023/09/12 02:36:25;;;;;;;11.88;6.20;;;;;;;25.54;100.00;100848.53;4991005;28;20138;-46
2023/09/12 02:38:52;;;;;;;11.73;6.57;;;;;;;25.56;100.00;100871.59;4988456;28;20054;-46
2023/09/12 02:41:24;;;;;;;12.82;6.32;;;;;;;25.58;100.00;100888.16;4988418;28;20100;-44
2023/09/12 02:43:51;;;;;;;12.23;5.97;;;;;;;25.58;100.00;100888.16;4988570;28;20089;-44
2023/09/12 02:46:17;;;;;;;12.32;6.43;;;;;;;25.55;100.00;100892.78;4994944;28;20452;-44
2023/09/12 02:48:44;;;;;;;11.82;6.22;;;;;;;25.54;100.00;100859.13;4988110;28;20052;-49
2023/09/12 02:51:11;;;;;;;13.73;6.32;;;;;;;25.55;100.00;100861.47;4992020;28;20109;-45
2023/09/12 02:53:38;;;;;;;13.25;6.15;;;;;;;25.53;100.00;100868.97;4991963;28;20057;-46
2023/09/12 02:56:04;;;;;;;10.40;5.80;;;;;;;25.56;100.00;100871.59;4992059;28;20478;-45
2023/09/12 02:58:31;;;;;;;10.75;5.63;;;;;;;25.56;100.00;100882.97;4991366;28;20081;-44
2023/09/12 03:00:58;;;;;;;12.07;5.93;;;;;;;25.53;100.00;100908.84;4990058;28;20046;-45
2023/09/12 03:03:25;;;;;;;12.18;6.32;;;;;;;25.51;100.00;100891.50;4991445;28;20050;-45
2023/09/12 03:05:59;;;;;;;10.88;5.60;;;;;;;25.50;100.00;100893.56;4991408;28;20129;-45
2023/09/12 03:08:25;;;;;;;11.25;6.22;;;;;;;25.53;100.00;100897.44;4991210;28;20113;-47
2023/09/12 03:10:58;;;;;;;12.38;6.18;;;;;;;25.54;100.00;100911.16;4991399;28;20137;-46
2023/09/12 03:13:25;;;;;;;12.00;6.28;;;;;;;25.51;100.00;100903.66;4991251;28;20508;-45
2023/09/12 03:15:52;;;;;;;10.27;5.70;;;;;;;25.53;100.00;100921.00;4991377;28;20057;-46
2023/09/12 03:18:19;;;;;;;11.25;5.70;;;;;;;25.53;100.00;100892.53;4992794;28;20046;-45
2023/09/12 03:20:45;;;;;;;12.27;6.00;;;;;;;25.53;100.00;100857.59;4992187;28;20479;-44
2023/09/12 03:23:12;;;;;;;12.00;6.00;;;;;;;25.52;100.00;100833.28;4995736;28;20090;-47
2023/09/12 03:25:39;;;;;;;13.30;6.55;;;;;;;25.54;100.00;100820.06;4990662;28;20146;-45
2023/09/12 03:28:06;;;;;;;12.20;6.40;;;;;;;25.55;100.00;100800.94;4991030;28;20468;-46
2023/09/12 03:30:35;;;;;;;11.50;6.38;;;;;;;25.51;100.00;100832.50;4991150;28;20050;-45
2023/09/12 03:33:02;;;;;;;15.45;7.22;;;;;;;25.51;100.00;100826.03;4991557;28;20137;-45
2023/09/12 03:35:29;;;;;;;13.38;7.07;;;;;;;25.52;100.00;100804.81;4990287;28;20057;-46
2023/09/12 03:37:56;;;;;;;14.13;6.97;;;;;;;25.51;100.00;100815.41;4990990;28;20132;-45
2023/09/12 03:40:31;;;;;;;13.23;7.22;;;;;;;25.50;100.00;100807.41;4990895;28;20051;-44
2023/09/12 03:42:58;;;;;;;12.65;6.85;;;;;;;25.53;100.00;100806.38;4994711;28;20929;-45
2023/09/12 03:45:27;;;;;;;12.75;6.25;;;;;;;25.53;100.00;100804.31;4982922;28;20050;-45
2023/09/12 03:47:54;;;;;;;11.02;5.65;;;;;;;25.53;100.00;100803.50;4990849;28;20050;-46
2023/09/12 03:50:21;;;;;;;11.13;6.28;;;;;;;25.52;100.00;100799.88;4998527;28;20074;-48
2023/09/12 03:52:47;;;;;;;13.88;6.15;;;;;;;25.53;100.00;100797.81;4990315;28;20050;-44
2023/09/12 03:55:17;;;;;;;10.93;5.95;;;;;;;25.53;100.00;100794.97;4990586;28;20105;-46
2023/09/12 03:57:43;;;;;;;14.25;6.82;;;;;;;25.52;100.00;100794.19;4990113;28;20477;-46
2023/09/12 04:00:10;;;;;;;12.52;6.43;;;;;;;25.50;100.00;100798.84;4990298;28;20097;-45
2023/09/12 04:02:37;;;;;;;12.30;5.88;;;;;;;25.52;100.00;100794.19;4989357;28;20109;-45
2023/09/12 04:05:07;;;;;;;11.57;5.88;;;;;;;25.52;100.00;100796.28;4990756;28;20108;-48
2023/09/12 04:07:33;;;;;;;13.05;6.72;;;;;;;25.53;100.00;100786.44;4995098;28;20054;-47
2023/09/12 04:10:00;;;;;;;11.38;6.47;;;;;;;25.54;100.00;100779.44;4990425;28;20497;-48
2023/09/12 04:12:26;;;;;;;12.55;6.03;;;;;;;25.51;100.00;100784.09;4990460;28;20054;-46
2023/09/12 04:14:54;;;;;;;11.57;6.18;;;;;;;25.54;100.00;100770.91;4990363;28;20038;-46
2023/09/12 04:17:21;;;;;;;14.50;6.72;;;;;;;25.50;100.00;100768.34;4994317;28;20046;-44
2023/09/12 04:19:47;;;;;;;11.60;6.07;;;;;;;25.50;100.00;100762.66;4990341;28;20058;-47
2023/09/12 04:22:14;;;;;;;12.70;6.05;;;;;;;25.53;100.00;100758.75;4995405;28;20137;-48
2023/09/12 04:24:41;;;;;;;13.68;6.55;;;;;;;25.53;100.00;100766.50;4990214;28;20086;-46
2023/09/12 04:27:07;;;;;;;11.90;6.55;;;;;;;25.54;100.00;100777.38;4990127;28;20251;-45
2023/09/12 04:29:37;;;;;;;16.65;6.60;;;;;;;25.54;100.00;100768.06;4989614;28;20453;-45
2023/09/12 04:32:04;;;;;;;14.63;7.05;;;;;;;25.53;100.00;100775.84;4993122;28;20155;-46
2023/09/12 04:34:32;;;;;;;11.73;6.05;;;;;;;25.51;100.00;100786.19;4989334;28;20046;-46
2023/09/12 04:37:02;;;;;;;12.00;6.95;;;;;;;25.54;100.00;100780.22;4989696;28;20157;-45
2023/09/12 04:39:29;;;;;;;12.70;6.60;;;;;;;25.51;100.00;100781.25;4990047;28;20143;-45
2023/09/12 04:41:59;;;;;;;14.23;6.75;;;;;;;25.52;100.00;100782.03;4989981;28;20867;-47
2023/09/12 04:44:26;;;;;;;14.02;6.50;;;;;;;25.53;100.00;100790.06;4989373;28;20137;-43
2023/09/12 04:46:52;;;;;;;14.45;6.85;;;;;;;25.52;100.00;100791.34;4989820;28;20053;-44
2023/09/12 04:49:19;;;;;;;12.80;6.55;;;;;;;25.52;100.00;100791.34;4995865;28;20401;-46
2023/09/12 04:51:45;;;;;;;12.82;6.53;;;;;;;25.53;100.00;100801.47;4989256;28;20050;-45
2023/09/12 04:54:12;;;;;;;12.70;6.10;;;;;;;25.53;100.00;100795.75;4989736;28;20145;-45
2023/09/12 04:56:38;;;;;;;12.75;6.68;;;;;;;25.53;100.00;100798.59;4989444;28;20042;-44
2023/09/12 04:59:06;;;;;;;13.68;7.10;;;;;;;25.53;100.00;100807.16;4989435;28;20133;-47
2023/09/12 05:01:33;;;;;;;14.57;6.57;;;;;;;25.52;100.00;100805.56;4989532;28;20351;-46
2023/09/12 05:03:59;;;;;;;12.65;6.57;;;;;;;25.52;100.00;100810.50;4988081;28;20515;-45
2023/09/12 05:06:26;;;;;;;13.50;6.60;;;;;;;25.53;100.00;100817.75;4987482;28;20133;-45
2023/09/12 05:08:56;;;;;;;11.55;6.15;;;;;;;25.50;100.00;100813.09;4989272;28;20046;-47
2023/09/12 05:11:24;;;;;;;14.32;6.45;;;;;;;25.52;100.00;100808.41;4991867;28;20137;-46
2023/09/12 05:13:51;;;;;;;14.75;7.07;;;;;;;25.51;100.00;100808.97;4996851;28;20054;-46
2023/09/12 05:16:19;;;;;;;12.32;6.60;;;;;;;25.50;100.00;100813.88;4988933;28;20050;-45
2023/09/12 05:18:45;;;;;;;12.02;6.28;;;;;;;25.48;100.00;100810.00;4989850;28;20137;-46
2023/09/12 05:21:12;;;;;;;12.77;6.40;;;;;;;25.53;100.00;100801.47;4991490;28;20230;-45
2023/09/12 05:23:39;;;;;;;13.48;6.50;;;;;;;25.51;100.00;100803.28;4989898;28;20050;-46
2023/09/12 05:26:08;;;;;;;13.10;6.78;;;;;;;25.50;100.00;100808.19;4988957;28;20755;-44
2023/09/12 05:28:34;;;;;;;10.63;5.63;;;;;;;25.55;100.00;100800.94;4990333;28;20490;-47
2023/09/12 05:31:01;;;;;;;10.93;6.20;;;;;;;25.52;100.00;100802.72;4989135;28;20054;-45
2023/09/12 05:33:27;;;;;;;13.02;6.53;;;;;;;25.50;100.00;100813.88;4989256;28;20147;-48
2023/09/12 05:35:54;;;;;;;10.82;5.85;;;;;;;25.53;100.00;100835.63;4992687;28;20497;-45
2023/09/12 05:38:20;;;;;;;12.32;6.30;;;;;;;25.51;100.00;100851.66;4988753;28;20150;-46
2023/09/12 05:40:49;;;;;;;12.23;5.85;;;;;;;25.47;100.00;100859.66;4987456;28;20133;-46
2023/09/12 05:43:16;;;;;;;13.35;6.93;;;;;;;25.48;100.00;100873.38;4991439;28;20050;-49
2023/09/12 05:45:46;;;;;;;12.85;6.18;;;;;;;25.51;100.00;100868.75;4988721;28;20497;-47
2023/09/12 05:48:12;;;;;;;9.73;5.68;;;;;;;25.52;100.00;100851.13;4988509;28;20137;-45
2023/09/12 05:50:39;;;;;;;11.27;5.95;;;;;;;25.50;100.00;100830.94;4988195;28;20046;-45
2023/09/12 05:53:08;;;;;;;12.35;6.30;;;;;;;25.49;100.00;100809.47;4993996;28;20156;-44
2023/09/12 05:55:34;;;;;;;12.52;5.78;;;;;;;25.49;100.00;100792.41;4982608;28;20107;-47
2023/09/12 05:58:01;;;;;;;15.40;6.68;;;;;;;25.53;100.00;100798.59;4989350;28;20136;-45
2023/09/12 06:00:28;;;;;;;12.63;6.07;;;;;;;25.49;100.00;100837.94;4988711;28;20042;-44
2023/09/12 06:02:55;;;;;;;12.63;5.90;;;;;;;25.50;100.00;100850.09;4988889;28;20057;-45
2023/09/12 06:05:21;;;;;;;13.02;5.70;;;;;;;25.50;100.00;100858.63;4988381;28;20062;-47
2023/09/12 06:07:48;;;;;;;12.48;6.07;;;;;;;25.47;100.00;100851.91;4987255;28;20088;-46
2023/09/12 06:10:14;;;;;;;11.68;5.82;;;;;;;25.46;100.00;100864.59;4988934;28;20547;-46
2023/09/12 06:12:41;;;;;;;12.85;6.18;;;;;;;25.44;100.00;100886.31;4988497;28;20129;-50
2023/09/12 06:15:08;;;;;;;9.18;5.20;;;;;;;25.45;100.00;100894.34;4988749;28;20080;-45
2023/09/12 06:17:34;;;;;;;11.13;5.72;;;;;;;25.44;100.00;100897.69;4988652;28;20491;-45
2023/09/12 06:20:01;;;;;;;10.43;5.35;;;;;;;25.47;100.00;100905.19;4987498;28;20153;-48
2023/09/12 06:22:28;;;;;;;10.85;5.70;;;;;;;25.47;100.00;100902.34;4987854;28;20503;-46
2023/09/12 06:24:57;;;;;;;11.05;5.53;;;;;;;25.49;100.00;100903.41;4994475;28;20069;-44
2023/09/12 06:27:24;;;;;;;8.68;4.82;;;;;;;25.48;100.00;100906.78;4993270;28;20104;-44
2023/09/12 06:29:50;;;;;;;11.63;5.78;;;;;;;25.47;100.00;100900.28;4993360;28;20431;-47
2023/09/12 06:32:18;;;;;;;11.10;5.18;;;;;;;25.47;100.00;100905.19;4994353;28;20073;-45
2023/09/12 06:34:44;;;;;;;10.27;5.50;;;;;;;25.47;100.00;100917.38;5000619;28;20046;-46
2023/09/12 06:37:12;;;;;;;10.90;5.60;;;;;;;25.47;100.00;100940.16;4994065;28;20074;-47
2023/09/12 06:39:38;;;;;;;10.82;5.15;;;;;;;25.49;100.00;100994.50;4995015;28;20118;-48
2023/09/12 06:42:05;;;;;;;11.15;5.35;;;;;;;25.50;100.00;101027.34;4998768;28;20061;-44
2023/09/12 06:44:32;;;;;;;9.65;5.25;;;;;;;25.52;100.00;101058.91;4997492;28;20401;-45
2023/09/12 06:46:58;;;;;;;11.27;5.30;;;;;;;25.52;100.00;101055.31;4990655;28;20061;-47
2023/09/12 06:49:25;;;;;;;10.88;5.50;;;;;;;25.51;100.00;100949.19;4998654;28;20512;-45
2023/09/12 06:51:51;;;;;;;11.13;5.15;;;;;;;25.55;100.00;100934.72;4994895;28;20046;-46
2023/09/12 06:54:18;;;;;;;10.38;5.15;;;;;;;25.52;100.00;100930.06;4991840;28;20073;-45
2023/09/12 06:56:44;;;;;;;11.85;6.30;;;;;;;25.52;100.00;100902.34;4992641;28;20053;-44
2023/09/12 06:59:11;;;;;;;9.73;5.07;;;;;;;25.50;100.00;100893.56;4990569;28;20113;-48
2023/09/12 07:01:38;;;;;;;13.32;5.93;;;;;;;25.53;100.00;100891.75;4991392;28;20104;-44
2023/09/12 07:04:04;;;;;;;8.60;4.80;;;;;;;25.54;100.00;100890.44;4991264;28;20046;-48
2023/09/12 07:06:32;;;;;;;11.32;4.72;;;;;;;25.54;100.00;100890.44;4995226;28;20070;-46
2023/09/12 07:08:59;;;;;;;9.90;5.53;;;;;;;25.56;100.00;100882.97;4992199;28;20505;-45
2023/09/12 07:11:26;;;;;;;10.88;5.05;;;;;;;25.54;100.00;100877.00;4991185;28;20072;-46
2023/09/12 07:13:52;;;;;;;10.25;5.40;;;;;;;25.54;100.00;100905.47;4990837;28;20424;-45
2023/09/12 07:16:20;;;;;;;10.43;4.95;;;;;;;25.54;100.00;100896.94;4996307;28;20142;-45
2023/09/12 07:18:48;;;;;;;10.48;5.18;;;;;;;25.56;100.00;100885.03;4991824;28;20066;-45
2023/09/12 07:21:15;;;;;;;11.48;5.15;;;;;;;25.53;100.00;100878.31;4994454;28;20070;-46
2023/09/12 07:23:41;;;;;;;10.63;5.22;;;;;;;25.53;100.00;100883.22;4991146;28;20406;-46
2023/09/12 07:26:13;;;;;;;14.10;6.30;;;;;;;25.50;100.00;100890.72;4996210;28;20054;-45
2023/09/12 07:28:40;;;;;;;12.90;5.90;;;;;;;25.52;100.00;100868.19;4989384;28;20042;-44
2023/09/12 07:31:07;;;;;;;11.70;5.07;;;;;;;25.51;100.00;100886.56;4991355;28;20062;-47
2023/09/12 07:33:34;;;;;;;11.52;5.40;;;;;;;25.54;100.00;100890.44;4991085;28;20050;-46
2023/09/12 07:36:02;;;;;;;13.20;5.75;;;;;;;25.55;100.00;100864.31;5009387;28;20050;-46
2023/09/12 07:38:30;;;;;;;11.23;5.57;;;;;;;25.53;100.00;100858.38;4990059;28;20085;-48
2023/09/12 07:40:58;;;;;;;16.02;6.40;;;;;;;25.57;100.00;100878.03;4990761;28;20062;-48
2023/09/12 07:43:24;;;;;;;13.07;5.68;;;;;;;25.54;100.00;100885.53;4991503;28;20120;-45
2023/09/12 07:45:55;;;;;;;15.77;6.93;;;;;;;25.58;100.00;100882.44;4989375;28;20141;-44
2023/09/12 07:48:22;;;;;;;16.50;8.48;;;;;;;25.57;100.00;100886.56;4989271;28;20114;-47
2023/09/12 07:50:49;;;;;;;19.90;8.98;;;;;;;25.55;100.00;100884.25;4996738;28;20089;-46
2023/09/12 07:53:15;;;;;;;19.35;9.15;;;;;;;25.53;100.00;100872.63;4990413;28;20061;-47
2023/09/12 07:55:46;;;;;;;19.92;7.95;;;;;;;25.51;100.00;100878.03;4990069;28;20096;-46
2023/09/12 07:58:21;;;;;;;15.10;6.57;;;;;;;25.49;100.00;100877.78;4989028;28;20057;-43
2023/09/12 08:00:48;;;;;;;15.27;8.10;;;;;;;25.53;100.00;100875.47;4997455;28;20066;-44
2023/09/12 08:03:17;;;;;;;18.38;8.48;;;;;;;25.56;100.00;100873.66;4989541;28;20050;-47
2023/09/12 08:05:44;;;;;;;18.30;8.68;;;;;;;25.54;100.00;100862.00;4990686;28;20042;-45
2023/09/12 08:08:10;;;;;;;17.60;8.18;;;;;;;25.49;100.00;100868.47;4990890;28;20631;-47
2023/09/12 08:10:37;;;;;;;17.67;7.03;;;;;;;25.47;100.00;100860.44;4994383;28;20078;-45
2023/09/12 08:13:03;;;;;;;16.85;7.28;;;;;;;25.49;100.00;100872.09;4989964;28;20068;-48
2023/09/12 08:15:30;;;;;;;17.55;8.10;;;;;;;25.56;100.00;100876.50;4994538;28;20046;-46
2023/09/12 08:17:57;;;;;;;17.98;9.07;;;;;;;25.54;100.00;100879.84;4989081;28;20074;-47
2023/09/12 08:20:23;;;;;;;19.70;9.40;;;;;;;25.49;100.00;100882.69;4996834;28;20497;-44
2023/09/12 08:22:50;;;;;;;18.58;9.00;;;;;;;25.49;100.00;100883.50;4992176;28;20042;-45
2023/09/12 08:25:16;;;;;;;14.80;7.68;;;;;;;25.46;100.00;100878.03;4989579;28;20046;-46
2023/09/12 08:27:43;;;;;;;19.02;8.50;;;;;;;25.53;100.00;100886.06;4992807;28;20513;-46
2023/09/12 08:30:12;;;;;;;17.83;8.70;;;;;;;25.49;100.00;100883.50;4986466;28;20042;-47
2023/09/12 08:32:45;;;;;;;19.92;9.60;;;;;;;25.49;100.00;100874.94;4986390;28;20452;-45
2023/09/12 08:35:12;;;;;;;16.23;8.65;;;;;;;25.49;100.00;100892.03;4987203;28;20058;-49
2023/09/12 08:37:40;;;;;;;19.55;9.07;;;;;;;25.47;100.00;100897.44;4989128;28;20050;-44
2023/09/12 08:40:10;;;;;;;18.92;8.77;;;;;;;25.47;100.00;100902.34;4988642;28;20058;-47
2023/09/12 08:42:42;;;;;;;19.15;9.60;;;;;;;25.51;100.00;100897.22;4989094;28;20117;-46
2023/09/12 08:45:27;;;;;;;17.55;9.23;;;;;;;25.48;100.00;100904.69;4992271;28;20054;-48
2023/09/12 08:47:55;;;;;;;17.80;9.13;;;;;;;25.47;100.00;100910.91;4981480;28;20066;-48
2023/09/12 08:50:23;;;;;;;18.95;9.63;;;;;;;25.40;100.00;100915.00;4988957;28;20113;-50
2023/09/12 08:52:50;;;;;;;18.48;9.23;;;;;;;25.37;100.00;100906.72;4987746;28;20054;-44
2023/09/12 08:55:35;;;;;;;22.23;11.95;;;;;;;25.42;100.00;100918.13;4987234;28;20512;-47
2023/09/12 08:58:03;;;;;;;21.10;10.90;;;;;;;25.43;100.00;100913.19;4988982;28;20054;-46
2023/09/12 09:00:30;;;;;;;20.10;11.23;;;;;;;25.39;100.00;100910.63;4996369;28;20758;-45
2023/09/12 09:02:58;;;;;;;21.10;10.30;;;;;;;25.32;100.00;100911.13;4987065;28;20541;-45
2023/09/12 09:05:26;;;;;;;36.80;13.63;;;;;;;25.41;100.00;100907.25;4986350;28;20050;-46
2023/09/12 09:07:54;;;;;;;22.73;10.68;;;;;;;25.39;100.00;100916.31;4983726;28;20058;-48
2023/09/12 09:10:22;;;;;;;21.63;10.45;;;;;;;25.37;100.00;100916.03;4985927;28;20061;-45
2023/09/12 09:13:09;;;;;;;19.70;10.40;;;;;;;25.40;100.00;100920.69;4983904;28;20130;-45
2023/09/12 09:15:41;;;;;;;20.02;10.30;;;;;;;25.39;100.00;100930.53;4987792;28;20218;-45
2023/09/12 09:18:10;;;;;;;19.38;9.50;;;;;;;25.26;100.00;100918.09;4987974;28;20141;-44
2023/09/12 09:20:38;;;;;;;18.45;9.85;;;;;;;25.39;100.00;100916.31;4989023;28;20064;-45
2023/09/12 09:23:08;;;;;;;15.85;8.43;;;;;;;25.34;100.00;100919.16;4988102;28;20050;-44
2023/09/12 09:25:39;;;;;;;17.48;8.23;;;;;;;25.25;100.00;100923.03;4989034;28;20055;-45
2023/09/12 09:28:22;;;;;;;17.17;8.07;;;;;;;25.31;100.00;100923.03;4988899;28;20050;-45
2023/09/12 09:30:54;;;;;;;19.65;9.02;;;;;;;25.36;100.00;100933.63;4988031;28;20104;-47
2023/09/12 09:33:22;;;;;;;16.65;7.68;;;;;;;25.37;100.00;100940.88;4989116;28;20156;-46
2023/09/12 09:35:51;;;;;;;16.27;7.75;;;;;;;25.34;100.00;100948.38;4988885;28;20085;-44
2023/09/12 09:38:19;;;;;;;13.55;6.72;;;;;;;25.33;100.00;100946.81;4988657;28;20513;-44
2023/09/12 09:40:47;;;;;;;15.38;6.75;;;;;;;25.35;100.00;100954.84;4996953;28;20061;-45
2023/09/12 09:43:20;;;;;;;15.10;6.20;;;;;;;25.37;100.00;100952.25;4988945;28;20058;-49
2023/09/12 09:45:47;;;;;;;13.88;6.18;;;;;;;25.36;100.00;100953.56;4996696;28;20704;-47
2023/09/12 09:48:22;;;;;;;12.77;6.00;;;;;;;25.31;100.00;100943.69;4980703;28;20074;-45
2023/09/12 09:50:49;;;;;;;12.25;6.22;;;;;;;25.28;100.00;100956.09;4996193;28;20051;-45
2023/09/12 09:53:15;;;;;;;12.13;6.10;;;;;;;25.28;100.00;100956.09;4994475;28;20060;-43
2023/09/12 09:55:42;;;;;;;17.80;5.90;;;;;;;25.28;100.00;100956.09;4992047;28;20050;-46
2023/09/12 09:58:16;;;;;;;11.85;5.30;;;;;;;25.33;100.00;100961.06;5001273;28;20100;-45
2023/09/12 10:00:44;;;;;;;13.65;5.22;;;;;;;25.32;100.00;100950.97;4993483;28;20081;-46
2023/09/12 10:03:12;;;;;;;12.43;5.65;;;;;;;25.33;100.00;100961.06;4999130;28;20701;-46
2023/09/12 10:05:41;;;;;;;11.73;5.30;;;;;;;25.35;100.00;100957.69;4992675;28;20058;-47
2023/09/12 10:08:10;;;;;;;12.35;5.57;;;;;;;25.33;100.00;100952.50;4992439;28;20077;-44
2023/09/12 10:10:39;;;;;;;11.68;5.63;;;;;;;25.35;100.00;100957.69;5002870;28;20096;-46
2023/09/12 10:13:08;;;;;;;10.13;4.72;;;;;;;25.37;100.00;100960.78;4996885;28;20516;-44
2023/09/12 10:15:37;;;;;;;11.25;5.28;;;;;;;25.33;100.00;100960.25;5000436;28;20644;-44
2023/09/12 10:18:09;;;;;;;8.65;4.60;;;;;;;25.36;100.00;100954.34;4992537;28;20061;-48
2023/09/12 10:20:48;;;;;;;9.98;4.47;;;;;;;25.40;100.00;100952.00;4930817;29;20132;-45
2023/09/12 10:23:23;;;;;;;13.63;5.18;;;;;;;25.32;100.00;100958.72;4929771;29;20044;-44
2023/09/12 10:25:53;;;;;;;9.68;4.78;;;;;;;25.32;100.00;100962.34;4931579;29;20079;-47
2023/09/12 10:28:21;;;;;;;11.68;5.18;;;;;;;25.33;100.00;100957.41;4930836;29;20048;-46
2023/09/12 10:30:49;;;;;;;9.48;4.47;;;;;;;25.31;100.00;100946.56;4932016;29;20269;-47
2023/09/12 10:33:17;;;;;;;9.02;4.43;;;;;;;25.33;100.00;100951.72;4928350;29;20532;-47
2023/09/12 10:35:45;;;;;;;11.20;4.93;;;;;;;25.34;100.00;100953.31;4929563;29;21355;-46
2023/09/12 10:38:14;;;;;;;8.88;4.40;;;;;;;25.32;100.00;100950.19;4953712;28;20046;-45
2023/09/12 10:40:41;;;;;;;13.85;5.25;;;;;;;25.35;100.00;100949.16;4992200;28;20138;-45
2023/09/12 10:43:11;;;;;;;9.65;4.80;;;;;;;25.36;100.00;100940.09;4990758;28;20535;-46
2023/09/12 10:45:39;;;;;;;9.85;4.80;;;;;;;25.37;100.00;100938.81;4993993;28;20054;-47
2023/09/12 10:48:09;;;;;;;7.85;4.20;;;;;;;25.37;100.00;100941.66;4991228;28;20069;-45
2023/09/12 10:50:38;;;;;;;9.60;4.85;;;;;;;25.37;100.00;100935.16;4990885;28;20116;-46
2023/09/12 10:53:12;;;;;;;9.57;4.63;;;;;;;25.38;100.00;100937.50;4973695;28;20132;-47
2023/09/12 10:55:39;;;;;;;8.90;4.45;;;;;;;25.38;100.00;100933.91;4991790;28;20136;-46
2023/09/12 10:58:12;;;;;;;10.43;4.63;;;;;;;25.36;100.00;100934.41;4991560;28;20048;-45
2023/09/12 11:00:40;;;;;;;9.35;4.43;;;;;;;25.37;100.00;100935.16;4991899;28;20108;-45
2023/09/12 11:03:28;;;;;;;7.18;4.20;;;;;;;25.36;100.00;100934.41;4992109;28;20052;-44
2023/09/12 11:05:55;;;;;;;10.93;4.28;;;;;;;25.36;100.00;100928.72;4988892;28;20511;-47
2023/09/12 11:08:23;;;;;;;14.73;4.85;;;;;;;25.38;100.00;100926.13;4991005;28;20468;-45
2023/09/12 11:11:21;;;;;;;13.27;4.93;;;;;;;25.40;100.00;100929.25;4991418;28;20112;-45
2023/09/12 11:14:03;;;;;;;14.55;7.10;;;;;;;25.40;100.00;100919.91;5001390;28;20050;-44
2023/09/12 11:16:29;;;;;;;13.38;5.40;;;;;;;25.41;100.00;100924.34;4993811;28;20133;-45